createdAt,value
2019-01-14T00:00:50.173Z,2.1
2019-01-14T00:02:50.129Z,2.5
2019-01-14T00:04:55.442Z,2.2
2019-01-14T00:06:49.920Z,1.9
2019-01-14T00:08:49.994Z,1.9
2019-01-14T00:10:50.016Z,3.7
2019-01-14T00:12:50.090Z,3.5
2019-01-14T00:14:50.131Z,3.3
2019-01-14T00:16:50.303Z,3.1
2019-01-14T00:18:50.412Z,3.1
2019-01-14T00:20:50.358Z,3.1
2019-01-14T00:22:50.402Z,2.5
2019-01-14T00:24:50.418Z,4.1
2019-01-14T00:26:49.731Z,3.7
2019-01-14T00:28:49.779Z,3.3
2019-01-14T00:30:49.741Z,3.3
2019-01-14T00:32:49.726Z,3.3
2019-01-14T00:34:50.099Z,3.6
2019-01-14T00:36:50.273Z,3.2
2019-01-14T00:38:50.303Z,3.2
2019-01-14T00:40:50.276Z,3.2
2019-01-14T00:42:50.273Z,2.7
2019-01-14T00:44:50.358Z,3.8
2019-01-14T00:46:49.601Z,3.8
2019-01-14T00:48:49.622Z,3.1
2019-01-14T00:50:49.610Z,3.1
2019-01-14T00:52:49.633Z,2.5
2019-01-14T00:54:49.710Z,3.8
2019-01-14T00:56:49.847Z,3.8
2019-01-14T00:58:49.864Z,4.4
2019-01-14T01:00:49.886Z,3.9
2019-01-14T01:02:49.894Z,4.1
2019-01-14T01:04:50.205Z,4.1
2019-01-14T01:06:50.389Z,4.0
2019-01-14T01:08:50.340Z,4.0
2019-01-14T01:10:50.373Z,3.4
2019-01-14T01:12:50.308Z,3.3
2019-01-14T01:14:50.267Z,3.2
2019-01-14T01:16:49.512Z,3.2
2019-01-14T01:18:49.551Z,4.4
2019-01-14T01:20:49.619Z,3.0
2019-01-14T01:22:49.582Z,3.4
2019-01-14T01:24:49.588Z,3.4
2019-01-14T01:26:49.897Z,4.2
2019-01-14T01:28:49.888Z,4.4
2019-01-14T01:30:49.914Z,4.7
2019-01-14T01:32:49.986Z,3.3
2019-01-14T01:34:50.243Z,3.3
2019-01-14T01:36:50.359Z,4.5
2019-01-14T01:38:50.377Z,3.8
2019-01-14T01:40:50.255Z,5.2
2019-01-14T01:42:50.292Z,5.2
2019-01-14T01:44:50.219Z,4.4
2019-01-14T01:46:50.388Z,4.4
2019-01-14T01:48:50.303Z,4.4
2019-01-14T01:50:50.269Z,5.1
2019-01-14T01:52:50.341Z,4.3
2019-01-14T01:54:50.266Z,4.3
2019-01-14T01:56:49.514Z,3.7
2019-01-14T01:58:49.505Z,4.7
2019-01-14T02:00:49.474Z,4.7
2019-01-14T02:02:49.467Z,5.3
2019-01-14T02:04:49.908Z,4.5
2019-01-14T02:06:50.140Z,4.5
2019-01-14T02:08:50.200Z,4.7
2019-01-14T02:10:50.217Z,3.5
2019-01-14T02:12:50.291Z,4.2
2019-01-14T02:14:49.433Z,4.2
2019-01-14T02:16:49.674Z,4.0
2019-01-14T02:18:49.768Z,5.1
2019-01-14T02:20:49.765Z,4.9
2019-01-14T02:22:49.876Z,6.5
2019-01-14T02:24:49.995Z,6.5
2019-01-14T02:26:50.412Z,4.1
2019-01-14T02:28:49.462Z,5.0
2019-01-14T02:30:49.557Z,4.7
2019-01-14T02:32:49.670Z,4.7
2019-01-14T02:34:50.026Z,5.7
2019-01-14T02:36:50.192Z,4.9
2019-01-14T02:38:50.138Z,4.9
2019-01-14T02:40:50.172Z,4.0
2019-01-14T02:42:50.191Z,4.0
2019-01-14T02:44:50.236Z,5.9
2019-01-14T02:46:49.513Z,4.4
2019-01-14T02:48:49.581Z,4.2
2019-01-14T02:50:49.685Z,4.2
2019-01-14T02:52:49.711Z,3.2
2019-01-14T02:54:49.739Z,3.2
2019-01-14T02:56:49.964Z,4.6
2019-01-14T02:58:50.023Z,4.4
2019-01-14T03:00:50.014Z,4.3
2019-01-14T03:02:50.017Z,4.3
2019-01-14T03:04:50.191Z,4.2
2019-01-14T03:06:57.572Z,3.9
2019-01-14T03:08:50.233Z,4.1
2019-01-14T03:10:50.304Z,7.2
2019-01-14T03:12:50.293Z,7.2
2019-01-14T03:14:50.449Z,4.3
2019-01-14T03:16:49.631Z,3.2
2019-01-14T03:18:49.680Z,5.4
2019-01-14T03:20:49.667Z,5.4
2019-01-14T03:22:49.726Z,4.3
2019-01-14T03:24:49.774Z,5.7
2019-01-14T03:26:49.950Z,5.2
2019-01-14T03:28:49.960Z,5.6
2019-01-14T03:30:49.949Z,4.4
2019-01-14T03:32:50.039Z,4.4
2019-01-14T03:34:50.244Z,4.8
2019-01-14T03:36:50.437Z,4.4
2019-01-14T03:38:49.541Z,6.4
2019-01-14T03:40:49.490Z,6.4
2019-01-14T03:42:49.481Z,4.4
2019-01-14T03:44:49.518Z,4.0
2019-01-14T03:46:49.714Z,4.0
2019-01-14T03:48:49.740Z,4.5
2019-01-14T03:50:49.775Z,3.4
2019-01-14T03:52:49.772Z,3.6
2019-01-14T03:54:49.772Z,3.7
2019-01-14T03:56:50.109Z,4.1
2019-01-14T03:58:50.076Z,4.1
2019-01-14T04:00:50.080Z,2.7
2019-01-14T04:02:50.155Z,2.7
2019-01-14T04:04:49.582Z,3.9
2019-01-14T04:06:49.726Z,3.9
2019-01-14T04:08:49.671Z,3.3
2019-01-14T04:10:49.672Z,3.5
2019-01-14T04:12:49.662Z,3.5
2019-01-14T04:14:49.694Z,4.5
2019-01-14T04:16:49.827Z,4.3
2019-01-14T04:18:49.840Z,4.3
2019-01-14T04:20:49.830Z,3.7
2019-01-14T04:22:49.817Z,2.4
2019-01-14T04:24:49.785Z,2.4
2019-01-14T04:26:50.029Z,2.4
2019-01-14T04:28:50.075Z,2.8
2019-01-14T04:30:50.066Z,2.8
2019-01-14T04:32:50.107Z,4.1
2019-01-14T04:34:49.548Z,3.7
2019-01-14T04:36:49.857Z,2.2
2019-01-14T04:38:49.852Z,2.2
2019-01-14T04:40:49.842Z,3.0
2019-01-14T04:42:49.805Z,2.2
2019-01-14T04:44:49.851Z,3.3
2019-01-14T04:46:50.118Z,3.3
2019-01-14T04:48:50.151Z,3.2
2019-01-14T04:50:50.145Z,3.2
2019-01-14T04:52:50.089Z,2.7
2019-01-14T04:54:49.998Z,2.8
2019-01-14T04:56:50.127Z,2.8
2019-01-14T04:58:50.131Z,2.1
2019-01-14T05:00:50.024Z,4.7
2019-01-14T05:02:49.987Z,4.6
2019-01-14T05:04:50.274Z,2.8
2019-01-14T05:06:50.384Z,2.8
2019-01-14T05:08:50.323Z,3.4
2019-01-14T05:10:50.375Z,1.7
2019-01-14T05:12:50.347Z,3.1
2019-01-14T05:14:50.345Z,3.1
2019-01-14T05:16:49.648Z,4.0
2019-01-14T05:18:49.757Z,1.7
2019-01-14T05:20:49.742Z,1.7
2019-01-14T05:22:49.738Z,1.1
2019-01-14T05:24:49.772Z,2.4
2019-01-14T05:26:49.658Z,1.1
2019-01-14T05:28:49.678Z,1.1
2019-01-14T05:30:49.667Z,1.5
2019-01-14T05:32:49.666Z,2.2
2019-01-14T05:34:49.916Z,1.7
2019-01-14T05:36:50.165Z,1.7
2019-01-14T05:38:50.128Z,1.2
2019-01-14T05:40:50.241Z,1.5
2019-01-14T05:42:50.242Z,1.0
2019-01-14T05:44:50.257Z,1.0
2019-01-14T05:46:50.410Z,1.5
2019-01-14T05:48:50.418Z,1.1
2019-01-14T05:50:49.447Z,2.1
2019-01-14T05:52:49.577Z,2.1
2019-01-14T05:54:49.697Z,1.2
2019-01-14T05:56:49.913Z,1.2
2019-01-14T05:58:49.966Z,2.1
2019-01-14T06:00:49.950Z,1.0
2019-01-14T06:02:49.976Z,2.2
2019-01-14T06:04:50.302Z,2.2
2019-01-14T06:06:49.461Z,1.5
2019-01-14T06:08:49.543Z,2.6
2019-01-14T06:10:49.632Z,3.0
2019-01-14T06:12:49.624Z,3.0
2019-01-14T06:14:49.632Z,2.4
2019-01-14T06:16:49.937Z,2.4
2019-01-14T06:18:49.965Z,2.4
2019-01-14T06:20:49.960Z,2.6
2019-01-14T06:22:49.929Z,2.6
2019-01-14T06:24:49.924Z,2.9
2019-01-14T06:26:50.068Z,2.9
2019-01-14T06:28:50.156Z,1.7
2019-01-14T06:30:50.152Z,2.5
2019-01-14T06:32:50.232Z,2.5
2019-01-14T06:34:49.564Z,4.4
2019-01-14T06:36:49.466Z,4.4
2019-01-14T06:38:49.565Z,3.3
2019-01-14T06:40:49.584Z,2.9
2019-01-14T06:42:49.631Z,4.1
2019-01-14T06:44:49.608Z,4.1
2019-01-14T06:46:49.987Z,1.9
2019-01-14T06:48:49.917Z,3.6
2019-01-14T06:50:49.938Z,2.5
2019-01-14T06:52:49.958Z,2.5
2019-01-14T06:54:49.926Z,4.3
2019-01-14T06:56:50.115Z,3.5
2019-01-14T06:58:50.129Z,4.1
2019-01-14T07:00:50.222Z,4.8
2019-01-14T07:02:50.135Z,4.8
2019-01-14T07:04:50.387Z,3.5
2019-01-14T07:06:49.519Z,4.9
2019-01-14T07:08:49.606Z,4.2
2019-01-14T07:10:49.632Z,2.9
2019-01-14T07:12:49.674Z,2.9
2019-01-14T07:14:49.752Z,3.7
2019-01-14T07:16:49.990Z,7.5
2019-01-14T07:18:49.997Z,6.6
2019-01-14T07:20:49.983Z,3.6
2019-01-14T07:22:50.008Z,3.6
2019-01-14T07:24:50.022Z,5.7
2019-01-14T07:26:50.273Z,3.8
2019-01-14T07:28:50.233Z,4.0
2019-01-14T07:30:50.339Z,4.0
2019-01-14T07:32:50.358Z,3.8
2019-01-14T07:34:49.705Z,5.3
2019-01-14T07:36:49.851Z,3.2
2019-01-14T07:38:49.893Z,3.9
2019-01-14T07:40:49.949Z,3.9
2019-01-14T07:42:49.947Z,5.2
2019-01-14T07:44:49.903Z,3.8
2019-01-14T07:46:50.015Z,3.6
2019-01-14T07:48:50.048Z,3.9
2019-01-14T07:50:50.038Z,3.9
2019-01-14T07:52:50.063Z,3.7
2019-01-14T07:54:50.017Z,3.7
2019-01-14T07:56:50.258Z,3.4
2019-01-14T07:58:50.241Z,4.6
2019-01-14T08:00:50.342Z,4.6
2019-01-14T08:02:50.303Z,3.2
2019-01-14T08:04:49.668Z,4.7
2019-01-14T08:06:49.782Z,4.3
2019-01-14T08:08:49.811Z,2.3
2019-01-14T08:10:49.780Z,2.3
2019-01-14T08:12:49.806Z,4.6
2019-01-14T08:14:49.919Z,3.8
2019-01-14T08:16:50.144Z,4.1
2019-01-14T08:18:50.272Z,4.7
2019-01-14T08:20:50.332Z,4.7
2019-01-14T08:22:50.375Z,4.1
2019-01-14T08:24:50.408Z,3.8
2019-01-14T08:26:49.699Z,3.9
2019-01-14T08:28:49.732Z,3.9
2019-01-14T08:30:49.739Z,3.7
2019-01-14T08:32:49.734Z,3.3
2019-01-14T08:34:49.969Z,2.9
2019-01-14T08:36:50.205Z,2.9
2019-01-14T08:38:50.217Z,3.2
2019-01-14T08:40:50.254Z,2.3
2019-01-14T08:42:50.168Z,3.2
2019-01-14T08:44:50.135Z,3.2
2019-01-14T08:46:49.462Z,3.1
2019-01-14T08:48:49.460Z,3.2
2019-01-14T08:50:49.590Z,3.0
2019-01-14T08:52:49.548Z,3.6
2019-01-14T08:54:49.559Z,2.7
2019-01-14T08:56:49.762Z,5.9
2019-01-14T08:58:49.736Z,5.9
2019-01-14T09:00:49.679Z,6.2
2019-01-14T09:02:49.752Z,3.4
2019-01-14T09:04:50.187Z,3.4
2019-01-14T09:06:50.393Z,3.4
2019-01-14T09:08:50.402Z,4.7
2019-01-14T09:10:50.421Z,3.4
2019-01-14T09:12:49.543Z,4.0
2019-01-14T09:14:49.539Z,4.5
2019-01-14T09:16:49.706Z,3.1
2019-01-14T09:18:49.700Z,3.1
2019-01-14T09:20:49.669Z,4.9
2019-01-14T09:22:49.746Z,3.7
2019-01-14T09:24:49.757Z,3.3
2019-01-14T09:26:49.902Z,3.3
2019-01-14T09:28:49.852Z,4.7
2019-01-14T09:30:49.869Z,5.4
2019-01-14T09:32:49.873Z,4.0
2019-01-14T09:34:50.174Z,4.9
2019-01-14T09:36:50.412Z,3.9
2019-01-14T09:38:50.424Z,3.9
2019-01-14T09:40:49.452Z,5.0
2019-01-14T09:42:49.500Z,5.2
2019-01-14T09:44:49.444Z,5.2
2019-01-14T09:46:49.634Z,3.9
2019-01-14T09:48:49.720Z,5.0
2019-01-14T09:50:49.703Z,3.6
2019-01-14T09:52:49.638Z,4.4
2019-01-14T09:54:49.676Z,7.4
2019-01-14T09:56:49.942Z,7.4
2019-01-14T09:58:49.902Z,2.8
2019-01-14T10:00:49.875Z,9.0
2019-01-14T10:02:49.884Z,6.8
2019-01-14T10:04:49.462Z,8.3
2019-01-14T10:06:49.666Z,8.3
2019-01-14T10:08:49.628Z,5.3
2019-01-14T10:10:49.658Z,5.3
2019-01-14T10:12:49.661Z,4.2
2019-01-14T10:14:49.586Z,4.2
2019-01-14T10:16:49.815Z,4.3
2019-01-14T10:18:49.855Z,2.3
2019-01-14T10:20:49.850Z,2.9
2019-01-14T10:22:49.872Z,2.8
2019-01-14T10:24:49.811Z,2.8
2019-01-14T10:26:49.990Z,2.6
2019-01-14T10:28:49.987Z,3.7
2019-01-14T10:30:49.988Z,3.1
2019-01-14T10:32:49.966Z,3.1
2019-01-14T10:34:50.173Z,2.8
2019-01-14T10:36:50.447Z,2.8
2019-01-14T10:38:50.386Z,5.6
2019-01-14T10:40:49.649Z,5.6
2019-01-14T10:42:49.710Z,3.8
2019-01-14T10:44:49.701Z,5.2
2019-01-14T10:46:49.939Z,5.4
2019-01-14T10:48:49.996Z,5.2
2019-01-14T10:50:49.994Z,3.8
2019-01-14T10:52:49.955Z,3.8
2019-01-14T10:54:49.997Z,3.8
2019-01-14T10:56:50.256Z,4.1
2019-01-14T10:58:50.244Z,3.8
2019-01-14T11:00:50.197Z,3.9
2019-01-14T11:02:50.309Z,3.7
2019-01-14T11:04:49.593Z,3.7
2019-01-14T11:06:49.912Z,6.2
2019-01-14T11:08:49.978Z,4.2
2019-01-14T11:10:49.764Z,6.5
2019-01-14T11:12:49.786Z,6.5
2019-01-14T11:14:49.790Z,6.4
2019-01-14T11:16:50.009Z,3.8
2019-01-14T11:18:49.986Z,4.5
2019-01-14T11:20:49.999Z,5.5
2019-01-14T11:22:50.135Z,5.5
2019-01-14T11:24:50.087Z,2.6
2019-01-14T11:26:49.705Z,4.5
2019-01-14T11:28:49.642Z,3.7
2019-01-14T11:30:49.656Z,3.7
2019-01-14T11:32:49.654Z,5.4
2019-01-14T11:34:50.144Z,3.9
2019-01-14T11:36:49.445Z,3.9
2019-01-14T11:38:49.520Z,4.9
2019-01-14T11:40:49.459Z,4.8
2019-01-14T11:42:49.440Z,4.6
2019-01-14T11:44:49.509Z,4.7
2019-01-14T11:46:49.720Z,3.9
2019-01-14T11:48:49.710Z,4.8
2019-01-14T11:50:49.668Z,4.8
2019-01-14T11:52:49.710Z,6.2
2019-01-14T11:54:49.752Z,4.4
2019-01-14T11:56:50.219Z,4.4
2019-01-14T11:58:50.339Z,4.1
2019-01-14T12:00:49.569Z,5.1
2019-01-14T12:02:49.580Z,3.5
2019-01-14T12:04:50.020Z,3.5
2019-01-14T12:06:50.359Z,4.7
2019-01-14T12:08:49.505Z,4.7
2019-01-14T12:10:49.694Z,4.8
2019-01-14T12:12:49.837Z,5.5
2019-01-14T12:14:50.092Z,5.8
2019-01-14T12:16:49.500Z,4.8
2019-01-14T12:18:49.669Z,4.8
2019-01-14T12:20:49.703Z,5.7
2019-01-14T12:22:49.741Z,5.7
2019-01-14T12:24:49.658Z,6.3
2019-01-14T12:26:49.813Z,3.4
2019-01-14T12:28:49.791Z,3.4
2019-01-14T12:30:49.709Z,3.3
2019-01-14T12:32:49.722Z,3.1
2019-01-14T12:34:50.064Z,3.1
2019-01-14T12:36:51.792Z,6.6
2019-01-14T12:38:49.912Z,5.3
2019-01-14T12:40:49.962Z,3.9
2019-01-14T12:42:49.930Z,5.6
2019-01-14T12:44:49.891Z,5.3
2019-01-14T12:46:50.106Z,7.3
2019-01-14T12:48:50.026Z,4.6
2019-01-14T12:50:50.144Z,4.6
2019-01-14T12:52:50.092Z,5.6
2019-01-14T12:54:50.053Z,5.6
2019-01-14T12:56:50.293Z,5.0
2019-01-14T12:58:49.502Z,6.4
2019-01-14T13:00:49.606Z,3.7
2019-01-14T13:02:49.769Z,5.0
2019-01-14T13:04:50.312Z,2.5
2019-01-14T13:06:49.607Z,2.5
2019-01-14T13:08:49.715Z,3.0
2019-01-14T13:10:49.975Z,3.3
2019-01-14T13:12:50.040Z,4.2
2019-01-14T13:14:50.033Z,5.4
2019-01-14T13:16:49.463Z,5.4
2019-01-14T13:18:49.792Z,4.5
2019-01-14T13:20:50.002Z,4.5
2019-01-14T13:22:50.104Z,5.0
2019-01-14T13:24:50.320Z,3.2
2019-01-14T13:26:49.667Z,3.2
2019-01-14T13:28:49.653Z,3.4
2019-01-14T13:30:49.636Z,3.4
2019-01-14T13:32:49.828Z,4.0
2019-01-14T13:34:49.432Z,4.2
2019-01-14T13:36:49.862Z,4.2
2019-01-14T13:38:49.946Z,4.8
2019-01-14T13:40:50.212Z,2.4
2019-01-14T13:42:50.366Z,3.6
2019-01-14T13:44:49.589Z,3.3
2019-01-14T13:46:49.987Z,3.3
2019-01-14T13:48:50.100Z,3.8
2019-01-14T13:50:50.283Z,4.2
2019-01-14T13:52:49.498Z,3.1
2019-01-14T13:54:49.460Z,3.1
2019-01-14T13:56:49.676Z,4.8
2019-01-14T13:58:49.659Z,4.5
2019-01-14T14:00:49.664Z,3.2
2019-01-14T14:02:49.652Z,3.3
2019-01-14T14:04:49.921Z,3.3
2019-01-14T14:06:50.076Z,4.5
2019-01-14T14:08:50.115Z,3.4
2019-01-14T14:10:50.047Z,3.4
2019-01-14T14:12:50.119Z,3.4
2019-01-14T14:14:50.089Z,3.6
2019-01-14T14:16:50.232Z,3.6
2019-01-14T14:18:50.257Z,2.6
2019-01-14T14:20:50.235Z,3.7
2019-01-14T14:22:50.281Z,5.2
2019-01-14T14:24:50.185Z,5.2
2019-01-14T14:26:50.410Z,3.5
2019-01-14T14:28:49.461Z,3.7
2019-01-14T14:30:49.489Z,3.7
2019-01-14T14:32:49.477Z,2.1
2019-01-14T14:34:49.801Z,2.1
2019-01-14T14:36:49.986Z,1.6
2019-01-14T14:38:50.050Z,1.7
2019-01-14T14:40:50.106Z,1.7
2019-01-14T14:42:50.169Z,3.5
2019-01-14T14:44:50.101Z,3.2
2019-01-14T14:46:50.394Z,2.2
2019-01-14T14:48:49.487Z,3.5
2019-01-14T14:50:49.443Z,2.6
2019-01-14T14:52:50.476Z,2.6
2019-01-14T14:54:49.538Z,2.0
2019-01-14T14:56:49.676Z,3.3
2019-01-14T14:58:49.628Z,3.3
2019-01-14T15:00:49.637Z,2.7
2019-01-14T15:02:49.698Z,3.1
2019-01-14T15:04:49.957Z,2.3
2019-01-14T15:06:50.207Z,2.5
2019-01-14T15:08:50.190Z,2.1
2019-01-14T15:10:50.189Z,2.1
2019-01-14T15:12:50.127Z,3.7
2019-01-14T15:14:50.078Z,2.3
2019-01-14T15:16:50.201Z,2.9
2019-01-14T15:18:50.220Z,2.9
2019-01-14T15:20:50.120Z,2.2
2019-01-14T15:22:50.078Z,5.3
2019-01-14T15:24:50.140Z,2.9
2019-01-14T15:26:50.308Z,3.3
2019-01-14T15:28:50.284Z,6.3
2019-01-14T15:30:50.270Z,6.3
2019-01-14T15:32:50.358Z,1.8
2019-01-14T15:34:49.593Z,2.7
2019-01-14T15:36:49.961Z,3.9
2019-01-14T15:38:49.964Z,4.1
2019-01-14T15:40:50.000Z,4.1
2019-01-14T15:42:50.024Z,3.5
2019-01-14T15:44:50.136Z,3.6
2019-01-14T15:46:50.356Z,4.1
2019-01-14T15:48:49.530Z,3.1
2019-01-14T15:50:49.523Z,3.1
2019-01-14T15:52:49.546Z,4.8
2019-01-14T15:54:49.623Z,3.0
2019-01-14T15:56:49.793Z,5.4
2019-01-14T15:58:49.805Z,3.5
2019-01-14T16:00:49.858Z,3.5
2019-01-14T16:02:49.835Z,5.8
2019-01-14T16:04:50.251Z,3.9
2019-01-14T16:06:49.445Z,5.4
2019-01-14T16:08:49.555Z,3.6
2019-01-14T16:10:49.611Z,3.6
2019-01-14T16:12:49.698Z,4.8
2019-01-14T16:14:49.635Z,5.1
2019-01-14T16:16:49.881Z,4.2
2019-01-14T16:18:49.840Z,4.2
2019-01-14T16:20:49.796Z,5.0
2019-01-14T16:22:49.777Z,5.1
2019-01-14T16:24:49.753Z,3.3
2019-01-14T16:26:49.932Z,4.8
2019-01-14T16:28:49.930Z,4.8
2019-01-14T16:30:49.907Z,2.4
2019-01-14T16:32:49.913Z,5.9
2019-01-14T16:34:50.080Z,3.4
2019-01-14T16:36:50.223Z,5.1
2019-01-14T16:38:50.209Z,5.1
2019-01-14T16:40:50.143Z,2.2
2019-01-14T16:42:50.138Z,2.1
2019-01-14T16:44:50.069Z,2.8
2019-01-14T16:46:50.256Z,2.8
2019-01-14T16:48:50.253Z,3.4
2019-01-14T16:50:50.184Z,3.4
2019-01-14T16:52:50.253Z,2.1
2019-01-14T16:54:50.183Z,2.1
2019-01-14T16:56:50.371Z,2.1
2019-01-14T16:58:49.586Z,3.7
2019-01-14T17:00:49.646Z,4.0
2019-01-14T17:02:49.593Z,3.0
2019-01-14T17:04:50.020Z,2.5
2019-01-14T17:06:50.151Z,2.5
2019-01-14T17:08:50.292Z,5.0
2019-01-14T17:10:50.229Z,2.5
2019-01-14T17:12:50.233Z,3.2
2019-01-14T17:14:50.183Z,3.2
2019-01-14T17:16:50.351Z,4.5
2019-01-14T17:18:50.336Z,2.7
2019-01-14T17:20:50.275Z,3.3
2019-01-14T17:22:50.392Z,3.9
2019-01-14T17:24:50.400Z,1.8
2019-01-14T17:26:49.613Z,1.8
2019-01-14T17:28:49.696Z,2.3
2019-01-14T17:30:49.677Z,3.9
2019-01-14T17:32:49.746Z,3.9
2019-01-14T17:34:50.086Z,2.5
2019-01-14T17:36:50.241Z,5.0
2019-01-14T17:38:51.091Z,3.3
2019-01-14T17:40:50.129Z,1.5
2019-01-14T17:42:50.068Z,5.7
2019-01-14T17:44:50.111Z,3.1
2019-01-14T17:46:50.311Z,3.1
2019-01-14T17:48:50.278Z,3.0
2019-01-14T17:50:50.307Z,2.4
2019-01-14T17:52:50.273Z,2.8
2019-01-14T17:54:50.259Z,3.0
2019-01-14T17:56:49.606Z,3.0
2019-01-14T17:58:49.625Z,2.0
2019-01-14T18:00:49.763Z,3.9
2019-01-14T18:02:50.154Z,3.1
2019-01-14T18:04:49.596Z,3.1
2019-01-14T18:06:49.932Z,3.2
2019-01-14T18:08:49.955Z,4.5
2019-01-14T18:10:49.895Z,4.5
2019-01-14T18:12:49.873Z,4.1
2019-01-14T18:14:49.833Z,4.1
2019-01-14T18:16:50.035Z,3.3
2019-01-14T18:18:49.993Z,5.1
2019-01-14T18:20:49.969Z,2.7
2019-01-14T18:22:49.984Z,2.7
2019-01-14T18:24:49.940Z,2.7
2019-01-14T18:26:50.232Z,4.9
2019-01-14T18:28:50.141Z,4.1
2019-01-14T18:30:50.182Z,2.1
2019-01-14T18:32:50.220Z,2.1
2019-01-14T18:34:49.516Z,2.8
2019-01-14T18:36:49.752Z,2.4
2019-01-14T18:38:49.805Z,2.2
2019-01-14T18:40:49.811Z,3.0
2019-01-14T18:42:49.815Z,3.0
2019-01-14T18:44:49.795Z,2.3
2019-01-14T18:46:50.036Z,4.0
2019-01-14T18:48:50.130Z,3.8
2019-01-14T18:50:50.169Z,3.7
2019-01-14T18:52:50.219Z,3.7
2019-01-14T18:54:50.255Z,4.1
2019-01-14T18:56:49.539Z,3.4
2019-01-14T18:58:49.616Z,3.1
2019-01-14T19:00:49.756Z,3.1
2019-01-14T19:02:49.727Z,3.1
2019-01-14T19:04:49.866Z,3.7
2019-01-14T19:06:50.142Z,5.3
2019-01-14T19:08:50.260Z,3.8
2019-01-14T19:10:54.240Z,4.7
2019-01-14T19:12:49.709Z,4.7
2019-01-14T19:14:49.755Z,4.9
2019-01-14T19:16:49.964Z,4.5
2019-01-14T19:18:50.084Z,3.4
2019-01-14T19:20:50.034Z,6.3
2019-01-14T19:22:50.067Z,6.3
2019-01-14T19:24:50.035Z,5.2
2019-01-14T19:26:50.268Z,5.7
2019-01-14T19:28:50.314Z,7.0
2019-01-14T19:30:50.250Z,7.0
2019-01-14T19:32:50.371Z,4.2
2019-01-14T19:34:49.681Z,4.3
2019-01-14T19:36:49.915Z,5.9
2019-01-14T19:38:49.883Z,4.3
2019-01-14T19:40:49.862Z,4.3
2019-01-14T19:42:49.878Z,8.0
2019-01-14T19:44:49.888Z,5.1
2019-01-14T19:46:50.047Z,6.1
2019-01-14T19:48:49.997Z,6.8
2019-01-14T19:50:50.003Z,6.8
2019-01-14T19:52:50.063Z,5.4
2019-01-14T19:54:50.050Z,6.9
2019-01-14T19:56:50.255Z,6.9
2019-01-14T19:58:50.277Z,5.4
2019-01-14T20:00:50.197Z,5.4
2019-01-14T20:02:50.279Z,7.5
2019-01-14T20:04:49.551Z,5.7
2019-01-14T20:06:49.873Z,4.6
2019-01-14T20:08:49.981Z,7.3
2019-01-14T20:10:50.004Z,7.3
2019-01-14T20:12:50.039Z,4.6
2019-01-14T20:14:50.060Z,6.7
2019-01-14T20:16:50.324Z,6.8
2019-01-14T20:18:49.433Z,6.4
2019-01-14T20:20:49.532Z,6.4
2019-01-14T20:22:49.555Z,8.0
2019-01-14T20:24:49.626Z,5.8
2019-01-14T20:26:49.886Z,5.4
2019-01-14T20:28:49.884Z,6.5
2019-01-14T20:30:49.841Z,6.5
2019-01-14T20:32:49.862Z,7.4
2019-01-14T20:34:50.116Z,7.4
2019-01-14T20:36:50.331Z,6.3
2019-01-14T20:38:49.524Z,6.3
2019-01-14T20:40:49.644Z,6.2
2019-01-14T20:42:49.776Z,7.2
2019-01-14T20:44:49.772Z,9.3
2019-01-14T20:46:49.885Z,9.3
2019-01-14T20:48:49.898Z,6.9
2019-01-14T20:50:49.910Z,5.4
2019-01-14T20:52:49.983Z,5.4
2019-01-14T20:54:50.027Z,6.6
2019-01-14T20:56:50.347Z,8.2
2019-01-14T20:58:50.441Z,8.9
2019-01-14T21:00:50.414Z,7.1
2019-01-14T21:02:49.576Z,6.4
2019-01-14T21:04:49.940Z,6.4
2019-01-14T21:06:50.247Z,6.4
2019-01-14T21:08:50.281Z,7.9
2019-01-14T21:10:50.423Z,8.1
2019-01-14T21:12:49.507Z,3.6
2019-01-14T21:14:49.533Z,7.0
2019-01-14T21:16:49.749Z,7.0
2019-01-14T21:18:49.778Z,8.4
2019-01-14T21:20:49.738Z,7.0
2019-01-14T21:22:49.716Z,6.7
2019-01-14T21:24:49.717Z,6.7
2019-01-14T21:26:49.842Z,6.8
2019-01-14T21:28:49.810Z,10.3
2019-01-14T21:30:49.847Z,5.7
2019-01-14T21:32:49.834Z,9.0
2019-01-14T21:34:50.133Z,7.2
2019-01-14T21:36:50.346Z,7.2
2019-01-14T21:38:50.439Z,6.9
2019-01-14T21:40:49.482Z,8.9
2019-01-14T21:42:49.601Z,8.9
2019-01-14T21:44:49.615Z,8.4
2019-01-14T21:46:49.944Z,10.3
2019-01-14T21:48:49.902Z,10.3
2019-01-14T21:50:49.927Z,7.9
2019-01-14T21:52:49.947Z,6.8
2019-01-14T21:54:49.922Z,6.8
2019-01-14T21:56:50.096Z,6.8
2019-01-14T21:58:50.078Z,7.1
2019-01-14T22:00:50.111Z,8.8
2019-01-14T22:02:50.138Z,8.6
2019-01-14T22:04:49.459Z,8.6
2019-01-14T22:06:49.731Z,7.9
2019-01-14T22:08:49.783Z,9.7
2019-01-14T22:10:49.841Z,6.6
2019-01-14T22:12:49.840Z,7.2
2019-01-14T22:14:49.824Z,7.2
2019-01-14T22:16:50.032Z,5.3
2019-01-14T22:18:50.027Z,5.4
2019-01-14T22:20:50.032Z,7.6
2019-01-14T22:22:50.014Z,6.5
2019-01-14T22:24:50.132Z,6.5
2019-01-14T22:26:50.408Z,9.9
2019-01-14T22:28:49.488Z,7.2
2019-01-14T22:30:49.469Z,8.2
2019-01-14T22:32:49.472Z,8.2
2019-01-14T22:34:49.998Z,8.3
2019-01-14T22:36:50.144Z,7.5
2019-01-14T22:38:50.163Z,7.8
2019-01-14T22:40:50.186Z,8.4
2019-01-14T22:42:50.148Z,8.4
2019-01-14T22:44:50.246Z,6.6
2019-01-14T22:46:49.454Z,7.1
2019-01-14T22:48:49.472Z,8.0
2019-01-14T22:50:49.586Z,8.0
2019-01-14T22:52:49.613Z,7.0
2019-01-14T22:54:49.724Z,7.6
2019-01-14T22:56:50.020Z,6.6
2019-01-14T22:58:50.054Z,8.4
2019-01-14T23:00:50.022Z,8.3
2019-01-14T23:02:49.558Z,8.3
2019-01-14T23:04:50.159Z,8.2
2019-01-14T23:06:49.449Z,8.0
2019-01-14T23:08:49.501Z,8.0
2019-01-14T23:10:50.780Z,6.3
2019-01-14T23:12:50.007Z,6.6
2019-01-14T23:14:49.998Z,7.3
2019-01-14T23:16:50.176Z,9.1
2019-01-14T23:18:50.179Z,8.4
2019-01-14T23:20:50.164Z,8.4
2019-01-14T23:22:50.260Z,8.4
2019-01-14T23:24:50.541Z,8.4
2019-01-14T23:26:49.894Z,8.3
2019-01-14T23:28:49.920Z,8.3
2019-01-14T23:30:49.955Z,5.7
2019-01-14T23:32:49.938Z,6.4
2019-01-14T23:34:50.269Z,5.0
2019-01-14T23:36:49.630Z,8.9
2019-01-14T23:38:49.624Z,5.0
2019-01-14T23:40:49.641Z,5.0
2019-01-14T23:42:49.669Z,11.0
2019-01-14T23:44:49.667Z,9.8
2019-01-14T23:46:49.809Z,7.1
2019-01-14T23:48:49.751Z,5.9
2019-01-14T23:50:49.736Z,5.9
2019-01-14T23:52:49.749Z,7.9
2019-01-14T23:54:49.722Z,8.3
2019-01-14T23:56:49.921Z,8.0
2019-01-14T23:58:49.906Z,7.3
